Time;durP1;ratioP1;P1;durP2;ratioP2;P2;SDS_P1;SDS_P2;PMS_P1;PMS_P2;Temp;Humidity;BMP_temperature;BMP_pressure;BME280_temperature;BME280_humidity;BME280_pressure;Samples;Min_cycle;Max_cycle;Signal;HPM_P1;HPM_P2
2023/06/28 00:03:02;;;;;;;4.07;3.00;;;;;;;-145.68;100.00;73933.56;10579706;28;20189;-74
2023/06/28 00:08:03;;;;;;;3.77;3.13;;;;;;;-145.68;100.00;73935.56;10579164;28;20589;-74
2023/06/28 00:13:03;;;;;;;4.28;3.05;;;;;;;-145.68;100.00;73915.56;10579269;28;20194;-74
2023/06/28 00:18:03;;;;;;;8.63;3.40;;;;;;;-145.68;100.00;73875.59;10578699;28;20272;-74
2023/06/28 00:23:04;;;;;;;4.60;3.25;;;;;;;-145.68;100.00;73859.59;10578683;28;20186;-74
2023/06/28 00:28:04;;;;;;;3.85;2.95;;;;;;;-145.68;100.00;73849.59;10578929;28;20225;-74
2023/06/28 00:33:04;;;;;;;5.65;3.28;;;;;;;-145.68;100.00;73839.59;10559702;28;20286;-75
2023/06/28 00:38:06;;;;;;;6.95;3.10;;;;;;;-145.68;100.00;73817.63;10578025;28;20205;-74
2023/06/28 00:43:07;;;;;;;5.85;2.88;;;;;;;-145.68;100.00;73813.63;10577547;28;20589;-74
2023/06/28 00:48:07;;;;;;;3.92;2.92;;;;;;;-145.68;100.00;73819.63;10559878;28;20213;-73
2023/06/28 00:53:08;;;;;;;7.88;2.60;;;;;;;-145.68;100.00;73815.63;10559272;28;20193;-73
2023/06/28 00:58:09;;;;;;;5.13;2.42;;;;;;;-145.68;100.00;73843.59;10577528;28;20524;-73
2023/06/28 01:03:09;;;;;;;4.20;2.70;;;;;;;-145.68;100.00;73851.59;10558471;28;20213;-72
2023/06/28 01:08:10;;;;;;;8.93;2.97;;;;;;;-145.68;100.00;73857.59;10556902;28;20217;-72
2023/06/28 01:13:11;;;;;;;7.18;2.72;;;;;;;-145.68;100.00;73865.59;10558819;28;20184;-72
2023/06/28 01:18:11;;;;;;;6.23;3.00;;;;;;;-145.68;100.00;73883.59;10558681;28;20186;-72
2023/06/28 01:23:13;;;;;;;10.27;3.10;;;;;;;-145.68;100.00;73907.56;10558090;28;20740;-72
2023/06/28 01:28:13;;;;;;;4.17;2.60;;;;;;;-145.68;100.00;73915.56;10558359;28;20297;-72
2023/06/28 01:33:15;;;;;;;8.83;2.67;;;;;;;-145.68;100.00;73933.56;10541077;28;20237;-72
2023/06/28 01:38:15;;;;;;;11.33;3.37;;;;;;;-145.68;100.00;73963.53;10576155;28;20205;-72
2023/06/28 01:43:15;;;;;;;3.20;2.90;;;;;;;-145.68;100.00;73947.56;10557996;28;20189;-72
2023/06/28 01:48:17;;;;;;;5.00;2.97;;;;;;;-145.68;100.00;73929.56;10579012;28;20587;-71
2023/06/28 01:53:19;;;;;;;7.63;2.80;;;;;;;-145.68;100.00;73925.56;10566379;28;20216;-72
2023/06/28 01:58:20;;;;;;;8.67;3.10;;;;;;;-145.68;100.00;73921.56;10584753;28;20238;-72
2023/06/28 02:03:20;;;;;;;6.07;2.90;;;;;;;-145.68;100.00;73917.56;10565938;28;20970;-72
2023/06/28 02:08:21;;;;;;;5.93;2.78;;;;;;;-145.68;100.00;73905.56;10584085;28;20206;-72
2023/06/28 02:13:22;;;;;;;3.38;2.60;;;;;;;-145.68;100.00;73901.56;10583893;28;20178;-72
2023/06/28 02:18:24;;;;;;;4.32;2.83;;;;;;;-145.68;100.00;73911.56;10565788;28;20281;-72
2023/06/28 02:23:25;;;;;;;6.13;2.73;;;;;;;-145.68;100.00;73925.56;10565083;28;20190;-72
2023/06/28 02:28:25;;;;;;;5.78;2.83;;;;;;;-145.68;100.00;73919.56;10583748;28;20277;-72
2023/06/28 02:33:25;;;;;;;6.80;3.05;;;;;;;-145.68;100.00;73917.56;10583087;28;20240;-72
2023/06/28 02:38:26;;;;;;;7.23;2.63;;;;;;;-145.68;100.00;73915.56;10582691;28;20216;-72
2023/06/28 02:43:26;;;;;;;6.22;2.80;;;;;;;-145.68;100.00;73933.56;10582872;28;20194;-72
2023/06/28 02:48:27;;;;;;;6.50;3.10;;;;;;;-145.68;100.00;73933.56;10582352;28;20209;-72
2023/06/28 02:53:27;;;;;;;10.35;3.20;;;;;;;-145.68;100.00;73937.56;10582433;28;20190;-72
2023/06/28 02:58:27;;;;;;;5.30;2.80;;;;;;;-145.68;100.00;73957.53;10564025;28;20277;-72
2023/06/28 03:03:33;;;;;;;5.25;3.50;;;;;;;-145.68;100.00;73957.53;10548153;28;20561;-72
2023/06/28 03:08:33;;;;;;;3.73;3.30;;;;;;;-145.68;100.00;73955.53;10518347;28;20219;-72
2023/06/28 03:13:34;;;;;;;7.50;3.60;;;;;;;-145.68;100.00;73975.53;10534951;28;20182;-72
2023/06/28 03:18:36;;;;;;;11.18;3.42;;;;;;;-145.68;100.00;73969.53;10517252;28;20541;-72
2023/06/28 03:23:36;;;;;;;8.53;3.30;;;;;;;-145.68;100.00;73969.53;10517233;28;20655;-72
2023/06/28 03:28:36;;;;;;;6.18;3.25;;;;;;;-145.68;100.00;73981.53;10516684;28;20221;-73
2023/06/28 03:33:37;;;;;;;7.40;3.42;;;;;;;-145.68;100.00;73975.53;10534275;28;20222;-72
2023/06/28 03:38:39;;;;;;;4.50;3.10;;;;;;;-145.68;100.00;73977.53;10515372;28;20222;-73
2023/06/28 03:43:41;;;;;;;12.03;3.43;;;;;;;-145.68;100.00;73965.53;10515956;28;20279;-72
2023/06/28 03:48:42;;;;;;;5.33;3.30;;;;;;;-145.68;100.00;73945.56;10515520;28;20218;-73
2023/06/28 03:53:43;;;;;;;7.32;3.45;;;;;;;-145.68;100.00;73925.56;10534019;28;20190;-72
2023/06/28 03:58:43;;;;;;;7.22;3.92;;;;;;;-145.68;100.00;73907.56;10516039;28;20220;-72
2023/06/28 04:03:44;;;;;;;9.15;3.22;;;;;;;-145.68;100.00;73887.56;10535779;28;20186;-72
2023/06/28 04:08:45;;;;;;;7.53;3.30;;;;;;;-145.68;100.00;73859.59;10537166;28;20309;-72
2023/06/28 04:13:46;;;;;;;9.93;3.35;;;;;;;-145.68;100.00;73875.59;10550329;28;20654;-72
2023/06/28 04:18:47;;;;;;;5.55;3.30;;;;;;;-145.68;100.00;73857.59;10578856;28;20239;-72
2023/06/28 04:23:47;;;;;;;9.95;3.17;;;;;;;-145.68;100.00;73845.59;10578839;28;20239;-72
2023/06/28 04:28:47;;;;;;;6.65;3.20;;;;;;;-145.68;100.00;73825.63;10578420;28;20731;-73
2023/06/28 04:33:48;;;;;;;9.30;3.40;;;;;;;-145.68;100.00;73811.63;10578253;28;20705;-72
2023/06/28 04:38:52;;;;;;;8.05;3.42;;;;;;;-145.68;100.00;73837.59;10577630;28;20696;-73
2023/06/28 04:43:56;;;;;;;5.90;3.28;;;;;;;-145.68;100.00;73855.59;10578158;28;20185;-73
2023/06/28 04:48:57;;;;;;;9.07;3.72;;;;;;;-145.68;100.00;73875.59;10576539;28;20213;-72
2023/06/28 04:53:58;;;;;;;7.20;3.13;;;;;;;-145.68;100.00;73875.59;10576701;28;20193;-73
2023/06/28 04:58:59;;;;;;;10.57;4.30;;;;;;;-145.68;100.00;73855.59;10573553;28;20186;-72
2023/06/28 05:03:59;;;;;;;7.07;3.63;;;;;;;-145.68;100.00;73857.59;10576274;28;20182;-73
2023/06/28 05:09:00;;;;;;;10.20;3.65;;;;;;;-145.68;100.00;73819.63;10576016;28;20217;-73
2023/06/28 05:14:00;;;;;;;8.32;3.53;;;;;;;-145.68;100.00;73831.59;10575858;28;20205;-73
2023/06/28 05:19:00;;;;;;;16.67;4.40;;;;;;;-145.68;100.00;73837.59;10575368;28;20194;-72
2023/06/28 05:24:01;;;;;;;13.60;4.32;;;;;;;-145.68;100.00;73797.63;10576116;28;20190;-73
2023/06/28 05:29:01;;;;;;;9.98;4.32;;;;;;;-145.68;100.00;73783.63;10576032;28;20221;-72
2023/06/28 05:34:02;;;;;;;9.75;3.75;;;;;;;-145.68;100.00;73729.66;10576213;28;20233;-73
2023/06/28 05:39:02;;;;;;;7.90;3.53;;;;;;;-145.68;100.00;73705.69;10574415;28;20202;-72
2023/06/28 05:44:03;;;;;;;10.60;3.75;;;;;;;-145.68;100.00;73683.69;10574238;28;20227;-73
2023/06/28 05:49:07;;;;;;;10.52;3.53;;;;;;;-145.68;100.00;73679.69;10575000;28;20221;-72
2023/06/28 05:54:07;;;;;;;8.27;3.13;;;;;;;-145.68;100.00;73595.75;10557234;28;20715;-73
2023/06/28 05:59:08;;;;;;;12.80;4.20;;;;;;;-145.68;100.00;73629.72;10575916;28;20185;-73
2023/06/28 06:04:08;;;;;;;9.27;3.88;;;;;;;-145.68;100.00;73669.69;10575675;28;20190;-72
2023/06/28 06:09:08;;;;;;;11.38;3.67;;;;;;;-145.68;100.00;73601.72;10575921;28;20369;-73
2023/06/28 06:14:09;;;;;;;10.63;3.45;;;;;;;-145.68;95.36;73583.75;10575716;28;20198;-73
2023/06/28 06:19:09;;;;;;;8.07;3.67;;;;;;;-145.68;90.38;73535.78;10575355;28;20190;-72
2023/06/28 06:24:10;;;;;;;11.10;3.35;;;;;;;-145.68;87.19;73477.81;10575802;28;20247;-72
2023/06/28 06:29:10;;;;;;;7.28;2.60;;;;;;;-145.68;81.13;73443.84;10574619;28;20220;-72
2023/06/28 06:34:10;;;;;;;4.78;2.38;;;;;;;-145.68;80.00;73433.84;10577664;27;20236;-72
2023/06/28 06:39:11;;;;;;;9.05;2.38;;;;;;;-145.68;72.89;73393.84;10582819;28;20201;-72
2023/06/28 06:44:11;;;;;;;7.95;2.78;;;;;;;-145.68;73.48;73375.88;10577737;28;20189;-73
2023/06/28 06:49:11;;;;;;;10.40;2.65;;;;;;;-145.68;71.20;73359.88;10580289;28;20222;-72
2023/06/28 06:54:12;;;;;;;14.63;2.97;;;;;;;-145.68;72.10;73391.84;10581296;28;20182;-72
2023/06/28 06:59:12;;;;;;;7.15;2.22;;;;;;;-145.68;68.94;73309.91;10580622;28;20190;-72
2023/06/28 07:04:12;;;;;;;7.63;2.00;;;;;;;-145.68;65.81;73327.91;10580105;28;20650;-72
2023/06/28 07:09:14;;;;;;;7.40;2.00;;;;;;;-145.68;62.45;73223.97;10579917;28;20209;-72
2023/06/28 07:14:14;;;;;;;9.30;1.80;;;;;;;-145.68;60.96;73261.94;10578959;28;20672;-72
2023/06/28 07:19:15;;;;;;;4.65;1.80;;;;;;;-145.68;58.65;73140.03;10578227;28;20189;-72
2023/06/28 07:24:15;;;;;;;9.07;2.13;;;;;;;-145.68;61.07;73205.97;10579287;28;20213;-72
2023/06/28 07:29:15;;;;;;;10.77;2.00;;;;;;;-145.68;57.48;73132.03;10578841;28;20208;-72
2023/06/28 07:34:16;;;;;;;6.68;2.13;;;;;;;-145.68;56.14;73096.06;10578056;28;20214;-72
2023/06/28 07:39:16;;;;;;;5.15;1.77;;;;;;;-145.68;55.49;73080.06;10579095;28;20212;-71
2023/06/28 07:44:16;;;;;;;8.75;3.20;;;;;;;-145.68;53.38;72984.13;10577542;28;20189;-72
2023/06/28 07:49:17;;;;;;;7.63;1.80;;;;;;;-145.68;50.00;72884.22;10576868;28;20210;-72
2023/06/28 07:54:17;;;;;;;6.30;1.67;;;;;;;-145.68;49.29;72840.25;10578864;28;20326;-72
2023/06/28 07:59:19;;;;;;;4.75;1.50;;;;;;;-145.68;50.48;72952.16;10577412;28;20269;-72
2023/06/28 08:04:20;;;;;;;8.52;1.60;;;;;;;-145.68;51.83;73048.09;10577799;28;20276;-72
2023/06/28 08:09:20;;;;;;;5.05;1.70;;;;;;;-145.68;50.88;72878.22;10576621;28;20221;-72
2023/06/28 08:14:21;;;;;;;6.45;1.70;;;;;;;-145.68;50.19;72876.22;10577164;28;20198;-72
2023/06/28 08:19:21;;;;;;;6.20;1.88;;;;;;;-145.68;49.15;72748.31;10576577;28;20215;-72
2023/06/28 08:24:21;;;;;;;4.28;1.48;;;;;;;-145.68;50.22;72994.13;10576744;28;20197;-72
2023/06/28 08:29:22;;;;;;;3.38;1.42;;;;;;;-145.68;52.42;73082.06;10575475;28;20217;-72
2023/06/28 08:34:23;;;;;;;3.38;1.30;;;;;;;-145.68;49.17;72850.25;10575305;28;20354;-72
2023/06/28 08:39:24;;;;;;;6.70;1.58;;;;;;;-145.68;50.68;73028.09;10575876;28;20209;-72
2023/06/28 08:44:26;;;;;;;6.07;1.27;;;;;;;-145.68;52.01;72974.16;10575548;28;20193;-72
2023/06/28 08:49:30;;;;;;;4.68;1.40;;;;;;;-145.68;49.34;72892.22;10574977;28;20686;-71
2023/06/28 08:54:31;;;;;;;5.63;1.90;;;;;;;-145.68;49.81;72900.19;10574153;28;20193;-72
2023/06/28 08:59:32;;;;;;;6.18;1.83;;;;;;;-145.68;48.75;72796.28;10574674;28;20658;-72
2023/06/28 09:04:32;;;;;;;4.97;1.40;;;;;;;-145.68;48.83;72942.16;10575462;28;20197;-72
2023/06/28 09:09:33;;;;;;;3.75;1.38;;;;;;;-145.68;49.96;72922.19;10556531;28;20221;-72
2023/06/28 09:14:33;;;;;;;8.68;1.90;;;;;;;-145.68;49.77;72826.25;10575397;28;20189;-72
2023/06/28 09:19:35;;;;;;;3.97;1.50;;;;;;;-145.68;46.75;72556.47;10556182;28;20243;-72
2023/06/28 09:24:36;;;;;;;4.43;1.73;;;;;;;-145.68;48.88;72770.31;10574071;28;20194;-72
2023/06/28 09:29:36;;;;;;;7.13;1.70;;;;;;;-145.68;48.93;72810.28;10574841;28;20217;-71
2023/06/28 09:34:37;;;;;;;5.38;1.52;;;;;;;-145.68;46.79;72600.44;10573403;28;20339;-72
2023/06/28 09:39:39;;;;;;;7.57;1.73;;;;;;;-145.68;46.06;72650.41;10573851;28;20209;-72
2023/06/28 09:44:40;;;;;;;5.65;1.73;;;;;;;-145.68;46.90;72582.44;10574349;28;20668;-72
2023/06/28 09:49:43;;;;;;;3.85;1.77;;;;;;;-145.68;44.83;72604.44;10573098;28;20559;-72
2023/06/28 09:54:47;;;;;;;5.72;1.52;;;;;;;-145.68;44.32;72552.47;10574059;28;20201;-72
2023/06/28 09:59:48;;;;;;;4.63;1.50;;;;;;;-145.68;45.50;72586.44;10573801;28;20201;-72
2023/06/28 10:04:50;;;;;;;6.43;1.60;;;;;;;-145.68;43.18;72436.56;10573441;28;20186;-73
2023/06/28 10:09:50;;;;;;;5.45;1.40;;;;;;;-145.68;41.80;72356.66;10574544;28;20777;-72
2023/06/28 10:15:12;;;;;;;4.53;1.48;;;;;;;-145.68;41.67;72376.63;10563155;28;20268;-73
2023/06/28 10:20:12;;;;;;;3.55;1.40;;;;;;;-145.68;40.65;72310.69;10581380;28;20181;-73
2023/06/28 10:25:39;;;;;;;4.13;1.75;;;;;;;-145.68;39.74;72246.75;10563390;28;20726;-72
2023/06/28 10:30:40;;;;;;;4.35;1.52;;;;;;;-145.68;41.74;72438.56;10580040;28;20649;-73
2023/06/28 10:35:43;;;;;;;5.25;1.67;;;;;;;-145.68;41.38;72344.66;10580979;28;20190;-73
2023/06/28 10:40:46;;;;;;;2.80;1.35;;;;;;;-145.68;39.31;72248.75;10562044;28;20212;-72
2023/06/28 10:45:47;;;;;;;3.95;1.48;;;;;;;-145.68;38.82;72168.81;10578661;28;20248;-72
2023/06/28 10:50:49;;;;;;;4.22;1.80;;;;;;;-145.68;39.33;72164.81;10580471;28;20274;-72
2023/06/28 10:56:09;;;;;;;3.10;1.10;;;;;;;-145.68;37.68;72168.81;10579846;28;20182;-72
2023/06/28 11:01:11;;;;;;;3.55;1.33;;;;;;;-145.68;37.25;72140.84;10578500;28;20282;-71
2023/06/28 11:06:12;;;;;;;4.38;1.55;;;;;;;-145.68;37.29;72082.91;10578989;28;20202;-72
2023/06/28 11:11:23;;;;;;;4.38;1.60;;;;;;;-145.68;37.24;72070.91;10583776;27;20242;-72
2023/06/28 11:16:24;;;;;;;4.28;1.27;;;;;;;-145.68;37.30;72082.91;10578795;28;20673;-72
2023/06/28 11:21:25;;;;;;;6.22;1.60;;;;;;;-145.68;39.15;72290.72;10577683;28;20186;-72
2023/06/28 11:26:38;;;;;;;3.03;1.55;;;;;;;-145.68;37.66;72146.84;10560085;28;20214;-72
2023/06/28 11:31:42;;;;;;;3.17;1.20;;;;;;;-145.68;38.22;72110.88;10558223;28;20237;-72
2023/06/28 11:36:43;;;;;;;5.25;1.58;;;;;;;-145.68;37.01;72112.88;10578666;28;20186;-72
2023/06/28 11:41:44;;;;;;;3.08;1.20;;;;;;;-145.68;39.82;72288.72;10577038;28;20222;-73
2023/06/28 11:46:47;;;;;;;4.22;1.55;;;;;;;-145.68;38.07;72194.78;10577463;28;20754;-72
2023/06/28 11:51:51;;;;;;;2.35;1.40;;;;;;;-145.68;38.21;72170.81;10559850;28;20185;-73
2023/06/28 11:56:51;;;;;;;6.88;1.50;;;;;;;-145.68;38.92;72200.78;10560680;28;20180;-72
2023/06/28 12:02:00;;;;;;;4.78;1.23;;;;;;;-145.68;37.57;72028.94;10577188;28;20177;-73
2023/06/28 12:07:06;;;;;;;2.67;1.35;;;;;;;-145.68;35.93;72000.97;10576573;28;20732;-73
2023/06/28 12:12:07;;;;;;;3.47;1.40;;;;;;;-145.68;36.51;72048.94;10578229;28;20209;-73
2023/06/28 12:17:08;;;;;;;5.53;1.40;;;;;;;-145.68;37.29;72086.91;10576494;28;20194;-73
2023/06/28 12:22:08;;;;;;;3.05;1.27;;;;;;;-145.68;37.41;72110.88;10576580;28;20223;-73
2023/06/28 12:27:08;;;;;;;4.40;1.15;;;;;;;-145.68;36.72;72144.84;10577475;28;20222;-73
2023/06/28 12:32:14;;;;;;;4.32;1.30;;;;;;;-145.68;35.85;72028.94;10575509;28;20262;-74
2023/06/28 12:37:14;;;;;;;3.63;1.50;;;;;;;-145.68;35.56;71939.03;10574897;28;20234;-73
2023/06/28 12:42:19;;;;;;;2.72;1.05;;;;;;;-145.68;34.52;71829.16;10575524;28;20271;-72
2023/06/28 12:47:30;;;;;;;3.55;1.00;;;;;;;-145.68;33.88;71863.13;10574428;28;20293;-73
2023/06/28 12:52:31;;;;;;;3.90;1.48;;;;;;;-145.68;33.33;71833.16;10566558;28;20200;-72
2023/06/28 12:57:31;;;;;;;11.20;4.80;;;;;;;-145.68;34.78;71973.00;10574745;28;20641;-73
2023/06/28 13:02:31;;;;;;;2.95;1.30;;;;;;;-145.68;35.40;71967.00;10573877;28;20569;-73
2023/06/28 13:07:32;;;;;;;22.80;10.70;;;;;;;-145.68;34.09;71957.03;10574229;28;20580;-72
2023/06/28 13:12:32;;;;;;;6.82;1.65;;;;;;;-145.68;34.94;72036.94;10543868;28;20315;-75
2023/06/28 13:17:32;;;;;;;15.55;9.93;;;;;;;-145.68;34.00;71917.06;10537415;28;20213;-75
2023/06/28 13:22:33;;;;;;;29.90;16.45;;;;;;;-145.68;35.91;72044.94;10519439;28;20190;-76
2023/06/28 13:27:33;;;;;;;4.28;1.55;;;;;;;-145.68;33.97;72012.97;10532938;28;20215;-76
2023/06/28 13:32:34;;;;;;;2.13;1.40;;;;;;;-145.68;34.63;71953.03;10513409;28;20237;-75
2023/06/28 13:37:34;;;;;;;9.95;6.22;;;;;;;-145.68;36.93;72170.81;10514648;28;20213;-75
2023/06/28 13:42:34;;;;;;;2.13;1.25;;;;;;;-145.68;34.70;71921.06;10555003;28;20243;-75
2023/06/28 13:47:35;;;;;;;2.13;1.30;;;;;;;-145.68;33.06;71793.19;10556353;28;20704;-76
2023/06/28 13:52:35;;;;;;;2.27;1.20;;;;;;;-145.68;32.82;71793.19;10556290;28;20732;-75
2023/06/28 13:57:35;;;;;;;6.00;1.20;;;;;;;-145.68;35.30;72014.97;10573797;28;20800;-76
2023/06/28 14:02:36;;;;;;;3.00;1.33;;;;;;;-145.68;35.60;72078.91;10574017;28;20182;-75
2023/06/28 14:07:36;;;;;;;3.80;1.40;;;;;;;-145.68;36.49;72180.81;10572946;28;20247;-76
2023/06/28 14:12:37;;;;;;;4.60;1.20;;;;;;;-145.68;35.68;72114.88;10573234;28;20650;-76
2023/06/28 14:17:37;;;;;;;1.42;1.10;;;;;;;-145.68;34.91;71961.03;10574235;28;20182;-76
2023/06/28 14:22:37;;;;;;;4.70;1.55;;;;;;;-145.68;31.47;71651.34;10573523;28;20178;-75
2023/06/28 14:27:38;;;;;;;2.40;1.13;;;;;;;-145.68;31.16;71513.50;10573601;28;20829;-76
2023/06/28 14:32:44;;;;;;;7.32;1.20;;;;;;;-145.68;29.03;71377.63;10572526;28;20479;-75
2023/06/28 14:37:44;;;;;;;3.30;1.30;;;;;;;-145.68;29.61;71389.63;10573595;28;20222;-76
2023/06/28 14:42:44;;;;;;;4.15;1.10;;;;;;;-145.68;30.19;71411.59;10572774;28;20697;-76
2023/06/28 14:47:45;;;;;;;2.47;1.20;;;;;;;-145.68;29.77;71391.63;10573295;28;20210;-75
2023/06/28 14:52:45;;;;;;;8.60;1.50;;;;;;;-145.68;31.21;71513.50;10572541;28;20501;-75
2023/06/28 14:57:45;;;;;;;4.23;1.10;;;;;;;-145.68;30.74;71471.53;10579267;28;20435;-75
2023/06/28 15:02:46;;;;;;;2.50;1.20;;;;;;;-145.68;30.77;71509.50;10580313;28;20577;-76
2023/06/28 15:07:46;;;;;;;3.65;1.10;;;;;;;-145.68;31.00;71501.50;10579822;28;20659;-75
2023/06/28 15:12:47;;;;;;;3.50;1.40;;;;;;;-145.68;31.57;71555.44;10579943;28;20710;-75
2023/06/28 15:17:47;;;;;;;3.93;1.30;;;;;;;-145.68;32.44;71729.25;10580384;28;20281;-76
2023/06/28 15:22:47;;;;;;;3.90;1.40;;;;;;;-145.68;34.75;71983.00;10578785;28;20451;-75
2023/06/28 15:27:48;;;;;;;2.03;1.10;;;;;;;-145.68;35.14;72036.94;10577406;28;20479;-75
2023/06/28 15:32:48;;;;;;;3.45;1.77;;;;;;;-145.68;36.24;72160.81;10576834;28;20240;-75
2023/06/28 15:37:48;;;;;;;5.30;1.42;;;;;;;-145.68;37.25;72252.75;10576857;28;20202;-75
2023/06/28 15:42:49;;;;;;;2.45;1.05;;;;;;;-145.68;37.54;72176.81;10578187;28;20210;-76
2023/06/28 15:47:49;;;;;;;2.75;1.40;;;;;;;-145.68;35.24;72030.94;10560950;28;20214;-76
2023/06/28 15:52:49;;;;;;;2.45;1.30;;;;;;;-145.68;34.92;72018.97;10576309;28;20281;-76
2023/06/28 15:57:50;;;;;;;3.08;1.40;;;;;;;-145.68;34.64;72000.97;10580141;28;20258;-76
2023/06/28 16:02:54;;;;;;;3.15;1.40;;;;;;;-145.68;34.47;71995.00;10579854;28;20189;-75
2023/06/28 16:07:54;;;;;;;4.55;1.30;;;;;;;-145.68;34.82;72034.94;10578808;28;20300;-76
2023/06/28 16:12:54;;;;;;;2.42;1.20;;;;;;;-145.68;34.85;72114.88;10579440;28;20601;-76
2023/06/28 16:17:55;;;;;;;2.42;1.10;;;;;;;-145.68;36.13;72170.81;10540981;28;20195;-75
2023/06/28 16:22:55;;;;;;;4.20;1.25;;;;;;;-145.68;36.90;72222.78;10535903;28;20206;-76
2023/06/28 16:27:57;;;;;;;2.55;1.20;;;;;;;-145.68;36.75;72222.78;10536835;28;20218;-75
2023/06/28 16:32:58;;;;;;;5.35;1.50;;;;;;;-145.68;37.51;72300.69;10536110;28;20238;-75
2023/06/28 16:37:59;;;;;;;5.45;1.52;;;;;;;-145.68;37.99;72312.69;10536068;28;20216;-75
2023/06/28 16:43:02;;;;;;;5.25;1.25;;;;;;;-145.68;37.96;72324.69;10536186;28;20274;-75
2023/06/28 16:48:03;;;;;;;3.10;1.20;;;;;;;-145.68;38.66;72414.59;10535851;28;20246;-75
2023/06/28 16:53:03;;;;;;;5.90;1.30;;;;;;;-145.68;38.27;72416.59;10570221;28;20186;-75
2023/06/28 16:58:03;;;;;;;5.35;1.05;;;;;;;-145.68;38.67;72434.59;10576715;28;20182;-76
2023/06/28 17:03:04;;;;;;;3.13;1.30;;;;;;;-145.68;39.64;72502.53;10576120;28;20198;-75
2023/06/28 17:08:04;;;;;;;2.90;1.20;;;;;;;-145.68;38.90;72496.53;10575869;28;20606;-75
2023/06/28 17:13:05;;;;;;;3.47;1.40;;;;;;;-145.68;39.11;72498.53;10576062;28;20608;-75
2023/06/28 17:18:05;;;;;;;2.22;1.10;;;;;;;-145.68;39.04;72492.53;10574817;28;20563;-75
2023/06/28 17:23:05;;;;;;;1.83;1.15;;;;;;;-145.68;39.60;72528.50;10556048;28;20222;-75
2023/06/28 17:28:06;;;;;;;3.55;1.02;;;;;;;-145.68;39.58;72566.47;10574511;28;20310;-75
2023/06/28 17:33:06;;;;;;;7.00;1.20;;;;;;;-145.68;40.27;72596.44;10574048;28;20222;-76
2023/06/28 17:38:07;;;;;;;3.13;1.30;;;;;;;-145.68;40.06;72584.44;10575140;28;20206;-75
2023/06/28 17:43:07;;;;;;;1.73;1.05;;;;;;;-145.68;39.74;72598.44;10573912;28;20194;-75
2023/06/28 17:48:08;;;;;;;1.55;1.02;;;;;;;-145.68;40.80;72646.41;10574102;28;20760;-75
2023/06/28 17:53:08;;;;;;;5.25;1.50;;;;;;;-145.68;41.69;72694.38;10560667;28;20197;-75
2023/06/28 17:58:08;;;;;;;3.42;1.20;;;;;;;-145.68;41.80;72690.38;10574273;28;20190;-75
2023/06/28 18:03:09;;;;;;;1.33;1.02;;;;;;;-145.68;41.77;72708.34;10573227;28;20192;-75
2023/06/28 18:08:09;;;;;;;5.68;1.20;;;;;;;-145.68;42.30;72722.34;10573465;28;20332;-75
2023/06/28 18:13:09;;;;;;;4.45;1.23;;;;;;;-145.68;42.46;72742.31;10581290;28;20198;-75
2023/06/28 18:18:10;;;;;;;1.83;1.02;;;;;;;-145.68;43.11;72792.28;10573207;28;20190;-75
2023/06/28 18:23:10;;;;;;;2.22;1.30;;;;;;;-145.68;44.02;72848.25;10574075;28;20200;-75
2023/06/28 18:28:10;;;;;;;1.50;1.40;;;;;;;-145.68;44.12;72848.25;10574283;28;20731;-75
2023/06/28 18:33:11;;;;;;;5.28;1.20;;;;;;;-145.68;44.87;72884.22;10580029;28;20740;-75
2023/06/28 18:38:11;;;;;;;2.97;1.35;;;;;;;-145.68;45.60;72924.19;10581172;28;21021;-75
2023/06/28 18:43:12;;;;;;;27.73;17.98;;;;;;;-145.68;48.38;73044.09;10582266;28;20653;-75
2023/06/28 18:48:12;;;;;;;7.03;4.88;;;;;;;-145.68;51.38;73158.00;10581616;28;20222;-75
2023/06/28 18:53:25;;;;;;;3.83;2.60;;;;;;;-145.68;53.49;73235.97;10580289;28;20186;-75
2023/06/28 18:58:30;;;;;;;2.63;1.25;;;;;;;-145.68;54.89;73279.94;10580550;28;20186;-75
2023/06/28 19:03:30;;;;;;;3.40;1.25;;;;;;;-145.68;55.25;73257.94;10580395;28;20541;-75
2023/06/28 19:08:31;;;;;;;3.10;1.30;;;;;;;-145.68;56.41;73335.91;10579979;28;20213;-75
2023/06/28 19:13:31;;;;;;;3.85;1.30;;;;;;;-145.68;59.67;73477.81;10579448;28;20200;-75
2023/06/28 19:18:32;;;;;;;1.88;1.50;;;;;;;-145.68;61.60;73515.78;10577076;28;20243;-75
2023/06/28 19:23:32;;;;;;;5.18;1.30;;;;;;;-145.68;62.59;73511.78;10580073;28;20178;-75
2023/06/28 19:28:33;;;;;;;6.35;1.90;;;;;;;-145.68;64.33;73531.78;10579448;28;20258;-75
2023/06/28 19:33:33;;;;;;;1.95;1.40;;;;;;;-145.68;65.56;73555.75;10579425;28;20740;-75
2023/06/28 19:38:34;;;;;;;5.85;3.45;;;;;;;-145.68;67.57;73595.75;10579136;28;20285;-75
2023/06/28 19:43:34;;;;;;;7.68;3.05;;;;;;;-145.68;69.70;73643.72;10579663;27;20189;-75
2023/06/28 19:48:34;;;;;;;7.28;2.67;;;;;;;-145.68;70.93;73659.69;10578903;28;20220;-75
2023/06/28 19:53:37;;;;;;;4.30;2.30;;;;;;;-145.68;72.10;73659.69;10578991;28;20186;-74
2023/06/28 19:58:39;;;;;;;4.18;2.30;;;;;;;-145.68;73.19;73687.69;10578659;28;20193;-75
2023/06/28 20:03:39;;;;;;;3.13;1.85;;;;;;;-145.68;73.43;73691.69;10577834;28;20189;-75
2023/06/28 20:08:39;;;;;;;2.75;1.70;;;;;;;-145.68;72.96;73697.69;10586331;27;20256;-75
2023/06/28 20:13:40;;;;;;;6.85;2.58;;;;;;;-145.68;73.77;73717.66;10578073;28;20190;-74
2023/06/28 20:18:40;;;;;;;4.15;2.30;;;;;;;-145.68;74.65;73741.66;10578032;28;20318;-75
2023/06/28 20:23:41;;;;;;;6.93;2.60;;;;;;;-145.68;76.27;73765.66;10578554;28;20190;-76
2023/06/28 20:28:43;;;;;;;3.42;2.20;;;;;;;-145.68;76.61;73775.63;10577567;28;20251;-75
2023/06/28 20:33:44;;;;;;;4.18;2.08;;;;;;;-145.68;76.88;73779.63;10577172;28;20358;-75
2023/06/28 20:38:46;;;;;;;10.23;1.88;;;;;;;-145.68;77.59;73793.63;10577517;28;20296;-75
2023/06/28 20:43:50;;;;;;;1.90;1.80;;;;;;;-145.68;78.14;73807.63;10576930;28;20203;-75
2023/06/28 20:48:50;;;;;;;6.47;2.00;;;;;;;-145.68;78.73;73829.59;10577320;28;20213;-75
2023/06/28 20:53:50;;;;;;;2.70;1.70;;;;;;;-145.68;80.24;73855.59;10576468;28;20261;-75
2023/06/28 20:58:51;;;;;;;3.30;1.83;;;;;;;-145.68;80.72;73859.59;10576444;28;20331;-75
2023/06/28 21:03:52;;;;;;;5.85;1.90;;;;;;;-145.68;81.66;73869.59;10576320;28;20182;-75
2023/06/28 21:08:52;;;;;;;6.25;1.90;;;;;;;-145.68;82.67;73887.56;10557695;28;20223;-75
2023/06/28 21:13:52;;;;;;;7.72;2.00;;;;;;;-145.68;83.83;73905.56;10557950;28;20189;-75
2023/06/28 21:18:53;;;;;;;3.08;1.75;;;;;;;-145.68;84.87;73913.56;10575522;28;20178;-75
2023/06/28 21:23:53;;;;;;;4.35;1.77;;;;;;;-145.68;85.70;73929.56;10576393;28;20205;-75
2023/06/28 21:28:53;;;;;;;5.25;2.17;;;;;;;-145.68;86.28;73933.56;10576142;28;20304;-75
2023/06/28 21:33:55;;;;;;;3.67;2.00;;;;;;;-145.68;87.74;73955.53;10576043;28;20240;-74
2023/06/28 21:38:57;;;;;;;3.05;1.90;;;;;;;-145.68;88.66;73967.53;10576114;28;20201;-75
2023/06/28 21:43:57;;;;;;;4.10;2.03;;;;;;;-145.68;89.96;73973.53;10576035;28;20590;-75
2023/06/28 21:48:57;;;;;;;4.10;1.63;;;;;;;-145.68;90.65;73979.53;10575996;28;20310;-75
2023/06/28 21:54:00;;;;;;;5.47;2.23;;;;;;;-145.68;90.33;73981.53;10575644;28;20241;-75
2023/06/28 21:59:01;;;;;;;5.63;2.10;;;;;;;-145.68;91.00;73991.53;10576036;28;20190;-75
2023/06/28 22:04:01;;;;;;;2.37;1.90;;;;;;;-145.68;91.53;74011.53;10576084;28;20209;-75
2023/06/28 22:09:01;;;;;;;5.30;2.20;;;;;;;-145.68;92.68;74011.53;10583699;28;20309;-75
2023/06/28 22:14:06;;;;;;;4.17;2.20;;;;;;;-145.68;93.02;74021.50;10583421;28;20207;-75
2023/06/28 22:19:09;;;;;;;3.80;1.87;;;;;;;-145.68;94.36;74035.50;10541800;28;20190;-75
2023/06/28 22:24:10;;;;;;;5.30;2.05;;;;;;;-145.68;94.26;74035.50;10541943;28;20197;-75
2023/06/28 22:29:10;;;;;;;3.70;2.10;;;;;;;-145.68;95.06;74039.50;10541521;28;20711;-75
2023/06/28 22:34:10;;;;;;;2.47;2.20;;;;;;;-145.68;96.66;74055.50;10540653;28;20333;-75
2023/06/28 22:39:11;;;;;;;3.20;2.00;;;;;;;-145.68;97.78;74067.50;10540857;28;20215;-75
2023/06/28 22:44:11;;;;;;;2.80;1.73;;;;;;;-145.68;98.50;74069.50;10540850;28;20265;-75